Time;durP1;ratioP1;P1;durP2;ratioP2;P2;SDS_P1;SDS_P2;PMS_P1;PMS_P2;Temp;Humidity;BMP_temperature;BMP_pressure;BME280_temperature;BME280_humidity;BME280_pressure;Samples;Min_cycle;Max_cycle;Signal;HPM_P1;HPM_P2
2021/05/15 00:01:43;;;;;;;8.48;1.50;;;;;;;10.34;100.00;100468.06;5070709;28;20052;-62
2021/05/15 00:04:09;;;;;;;9.82;1.90;;;;;;;10.31;100.00;100457.66;5070606;28;20052;-63
2021/05/15 00:06:35;;;;;;;9.32;1.83;;;;;;;10.27;100.00;100445.59;5069379;28;20506;-64
2021/05/15 00:09:01;;;;;;;14.77;1.73;;;;;;;10.26;100.00;100443.94;5070714;28;20407;-63
2021/05/15 00:11:26;;;;;;;10.38;1.88;;;;;;;10.27;100.00;100445.59;5070538;28;20043;-64
2021/05/15 00:13:52;;;;;;;7.72;1.77;;;;;;;10.24;100.00;100440.63;5070529;28;20040;-62
2021/05/15 00:16:19;;;;;;;10.20;2.00;;;;;;;10.21;100.00;100424.72;5070549;28;20041;-63
2021/05/15 00:18:45;;;;;;;17.13;2.55;;;;;;;10.18;100.00;100436.94;5070626;28;20044;-65
2021/05/15 00:21:11;;;;;;;9.70;1.50;;;;;;;10.15;100.00;100436.63;5070590;28;20799;-64
2021/05/15 00:23:36;;;;;;;9.45;1.85;;;;;;;10.11;100.00;100424.56;5070481;28;20123;-62
2021/05/15 00:26:02;;;;;;;9.25;2.15;;;;;;;10.07;100.00;100417.94;5069156;28;20391;-63
2021/05/15 00:28:28;;;;;;;17.17;3.25;;;;;;;10.04;100.00;100407.50;5070551;28;20120;-63
2021/05/15 00:30:54;;;;;;;10.68;2.10;;;;;;;10.01;100.00;100413.47;5070440;28;20086;-63
2021/05/15 00:33:20;;;;;;;6.32;0.95;;;;;;;9.96;100.00;100406.88;5070388;28;20037;-64
2021/05/15 00:35:46;;;;;;;6.35;1.52;;;;;;;9.95;100.00;100410.66;5070397;28;20055;-63
2021/05/15 00:38:11;;;;;;;10.68;2.20;;;;;;;9.92;100.00;100400.25;5070396;28;20051;-64
2021/05/15 00:40:38;;;;;;;5.55;1.65;;;;;;;9.88;100.00;100399.09;5070361;28;20064;-63
2021/05/15 00:43:05;;;;;;;7.82;1.70;;;;;;;9.88;100.00;100404.53;5070498;28;20037;-62
2021/05/15 00:45:31;;;;;;;5.60;1.40;;;;;;;9.85;100.00;100402.31;5070230;28;20043;-62
2021/05/15 00:47:57;;;;;;;7.97;2.25;;;;;;;9.87;100.00;100397.44;5070304;28;20395;-61
2021/05/15 00:50:22;;;;;;;8.18;1.38;;;;;;;9.85;100.00;100391.41;5070279;28;20033;-63
2021/05/15 00:52:48;;;;;;;10.50;2.20;;;;;;;9.84;100.00;100387.03;5070249;28;20502;-62
2021/05/15 00:55:15;;;;;;;8.48;1.33;;;;;;;9.82;100.00;100386.44;5070244;28;20064;-63
2021/05/15 00:57:41;;;;;;;8.50;1.80;;;;;;;9.83;100.00;100379.91;5070417;28;20063;-65
2021/05/15 01:00:10;;;;;;;9.90;1.48;;;;;;;9.83;100.00;100369.00;5070102;28;20098;-62
2021/05/15 01:02:36;;;;;;;10.15;1.73;;;;;;;9.82;100.00;100356.44;5070119;28;20086;-63
2021/05/15 01:05:03;;;;;;;12.15;2.20;;;;;;;9.80;100.00;100361.31;5071165;28;20529;-63
2021/05/15 01:07:29;;;;;;;8.40;1.58;;;;;;;9.81;100.00;100362.97;5073782;28;20382;-63
2021/05/15 01:09:54;;;;;;;12.57;1.50;;;;;;;9.81;100.00;100362.16;5073808;28;20032;-62
2021/05/15 01:12:21;;;;;;;13.35;2.85;;;;;;;9.80;100.00;100344.97;5074029;28;20088;-62
2021/05/15 01:14:47;;;;;;;14.05;1.90;;;;;;;9.79;100.00;100354.22;5073746;28;20120;-63
2021/05/15 01:17:13;;;;;;;5.82;1.08;;;;;;;9.78;100.00;100355.31;5073650;28;20063;-64
2021/05/15 01:19:38;;;;;;;5.40;1.20;;;;;;;9.78;100.00;100349.84;5073545;28;20032;-62
2021/05/15 01:22:06;;;;;;;11.77;1.25;;;;;;;9.77;100.00;100342.75;5073506;28;20094;-64
2021/05/15 01:24:31;;;;;;;5.25;1.00;;;;;;;9.79;100.00;100334.31;5073400;28;20079;-64
2021/05/15 01:26:59;;;;;;;12.93;1.13;;;;;;;9.78;100.00;100332.66;5073662;28;20056;-62
2021/05/15 01:29:25;;;;;;;6.55;0.90;;;;;;;9.75;100.00;100328.53;5073552;28;20037;-63
2021/05/15 01:31:51;;;;;;;8.15;0.73;;;;;;;9.75;100.00;100317.63;5072197;28;20033;-62
2021/05/15 01:34:17;;;;;;;9.45;0.82;;;;;;;9.71;100.00;100310.16;5073302;28;20360;-63
2021/05/15 01:36:43;;;;;;;6.88;0.70;;;;;;;9.71;100.00;100311.00;5073451;28;20051;-63
2021/05/15 01:39:11;;;;;;;6.45;1.15;;;;;;;9.72;100.00;100306.38;5073280;28;20126;-63
2021/05/15 01:41:37;;;;;;;5.13;0.75;;;;;;;9.72;100.00;100299.03;5073060;28;20032;-64
2021/05/15 01:44:03;;;;;;;5.28;0.80;;;;;;;9.73;100.00;100292.50;5073101;28;20110;-63
2021/05/15 01:46:28;;;;;;;6.13;1.02;;;;;;;9.74;100.00;100299.59;5073092;28;20029;-62
2021/05/15 01:48:54;;;;;;;4.88;0.60;;;;;;;9.75;100.00;100290.34;5073154;28;20059;-63
2021/05/15 01:51:20;;;;;;;2.28;0.50;;;;;;;9.76;100.00;100291.19;5073085;28;20037;-63
2021/05/15 01:53:48;;;;;;;7.72;1.23;;;;;;;9.78;100.00;100278.94;5073004;28;20083;-62
2021/05/15 01:56:33;;;;;;;1.95;0.80;;;;;;;9.78;100.00;100278.94;5072873;28;20033;-62
2021/05/15 01:58:59;;;;;;;7.68;1.20;;;;;;;9.76;100.00;100269.34;5072942;28;20090;-61
2021/05/15 02:01:26;;;;;;;4.20;0.80;;;;;;;9.77;100.00;100266.38;5072775;28;20036;-61
2021/05/15 02:03:52;;;;;;;2.97;0.70;;;;;;;9.79;100.00;100253.31;5072778;28;20139;-62
2021/05/15 02:06:19;;;;;;;3.72;0.70;;;;;;;9.81;100.00;100256.63;5072786;28;20051;-63
2021/05/15 02:08:46;;;;;;;2.67;0.90;;;;;;;9.82;100.00;100258.25;5073039;28;20458;-63
2021/05/15 02:11:15;;;;;;;5.53;1.08;;;;;;;9.84;100.00;100261.56;5072665;28;20090;-63
2021/05/15 02:13:43;;;;;;;5.47;0.80;;;;;;;9.85;100.00;100256.94;5072560;28;20283;-64
2021/05/15 02:16:08;;;;;;;6.22;1.42;;;;;;;9.86;100.00;100248.50;5071988;28;20040;-62
2021/05/15 02:18:35;;;;;;;5.50;0.80;;;;;;;9.90;100.00;100257.84;5072538;28;20399;-62
2021/05/15 02:21:00;;;;;;;4.85;1.88;;;;;;;9.94;100.00;100250.78;5072458;28;20043;-63
2021/05/15 02:23:26;;;;;;;10.95;1.30;;;;;;;9.98;100.00;100246.47;5072433;28;20048;-62
2021/05/15 02:25:55;;;;;;;10.35;1.45;;;;;;;10.02;100.00;100238.59;5072494;28;20048;-64
2021/05/15 02:28:21;;;;;;;9.63;1.85;;;;;;;10.06;100.00;100241.66;5072401;28;20040;-62
2021/05/15 02:30:47;;;;;;;11.00;1.58;;;;;;;10.08;100.00;100228.59;5072201;28;20040;-63
2021/05/15 02:33:13;;;;;;;13.90;2.65;;;;;;;10.11;100.00;100225.38;5072081;28;20493;-62
2021/05/15 02:35:40;;;;;;;12.80;2.13;;;;;;;10.15;100.00;100223.78;5072144;28;20115;-63
2021/05/15 02:38:07;;;;;;;8.77;1.30;;;;;;;10.17;100.00;100222.44;5072362;28;20178;-63
2021/05/15 02:40:32;;;;;;;7.72;1.67;;;;;;;10.19;100.00;100219.44;5072035;28;20123;-63
2021/05/15 02:42:58;;;;;;;8.57;1.48;;;;;;;10.19;100.00;100214.00;5072122;28;20061;-62
2021/05/15 02:45:25;;;;;;;13.45;2.13;;;;;;;10.21;100.00;100211.84;5071951;28;20471;-63
2021/05/15 02:47:55;;;;;;;5.75;1.20;;;;;;;10.24;100.00;100205.91;5071927;28;20070;-64
2021/05/15 02:50:22;;;;;;;9.80;1.88;;;;;;;10.26;100.00;100203.75;5071786;28;20024;-63
2021/05/15 02:52:48;;;;;;;4.97;0.98;;;;;;;10.26;100.00;100204.56;5071655;28;20032;-63
2021/05/15 02:55:22;;;;;;;4.70;1.02;;;;;;;10.26;100.00;100195.56;5071741;28;20490;-64
2021/05/15 02:57:49;;;;;;;8.17;0.80;;;;;;;10.26;100.00;100198.28;5071858;28;20028;-62
2021/05/15 03:00:17;;;;;;;5.68;1.10;;;;;;;10.25;100.00;100196.66;5070509;28;20399;-64
2021/05/15 03:02:43;;;;;;;1.55;0.70;;;;;;;10.23;100.00;100190.59;5071543;28;20032;-63
2021/05/15 03:05:12;;;;;;;5.15;0.90;;;;;;;10.21;100.00;100195.47;5071454;28;20485;-63
2021/05/15 03:07:38;;;;;;;3.00;0.85;;;;;;;10.20;100.00;100188.34;5071560;28;20394;-64
2021/05/15 03:10:07;;;;;;;3.75;1.00;;;;;;;10.19;100.00;100173.06;5071475;28;20036;-62
2021/05/15 03:12:34;;;;;;;1.88;0.68;;;;;;;10.19;100.00;100173.06;5071352;28;20032;-63
2021/05/15 03:15:00;;;;;;;7.80;1.58;;;;;;;10.20;100.00;100182.88;5071481;28;20390;-63
2021/05/15 03:17:26;;;;;;;6.90;1.65;;;;;;;10.23;100.00;100185.13;5071566;28;20127;-63
2021/05/15 03:19:53;;;;;;;7.88;1.60;;;;;;;10.27;100.00;100189.84;5071370;28;20071;-63
2021/05/15 03:22:23;;;;;;;7.20;2.10;;;;;;;10.32;100.00;100183.59;5071364;28;20440;-62
2021/05/15 03:24:49;;;;;;;9.98;1.60;;;;;;;10.32;100.00;100180.88;5071133;28;20047;-61
2021/05/15 03:27:15;;;;;;;8.55;1.67;;;;;;;10.34;100.00;100173.25;5070510;28;20033;-64
2021/05/15 03:29:41;;;;;;;9.40;2.03;;;;;;;10.36;100.00;100182.00;5071026;28;20037;-63
2021/05/15 03:32:08;;;;;;;10.85;2.08;;;;;;;10.38;100.00;100171.66;5071154;28;20039;-61
2021/05/15 03:34:34;;;;;;;12.60;2.08;;;;;;;10.41;100.00;100162.13;5071078;28;20041;-62
2021/05/15 03:36:59;;;;;;;15.80;2.45;;;;;;;10.45;100.00;100169.56;5071146;28;20032;-63
2021/05/15 03:39:25;;;;;;;7.95;2.08;;;;;;;10.51;100.00;100163.06;5071052;28;20094;-64
2021/05/15 03:41:51;;;;;;;16.02;2.33;;;;;;;10.57;100.00;100166.66;5070877;28;20047;-64
2021/05/15 03:44:16;;;;;;;17.45;3.45;;;;;;;10.62;100.00;100165.91;5070897;28;20079;-63
2021/05/15 03:46:42;;;;;;;17.75;2.65;;;;;;;10.66;100.00;100167.00;5069548;28;20478;-62
2021/05/15 03:49:08;;;;;;;18.25;3.67;;;;;;;10.70;100.00;100160.78;5070990;28;20036;-63
2021/05/15 03:51:35;;;;;;;19.35;3.00;;;;;;;10.73;100.00;100175.81;5071005;28;20378;-63
2021/05/15 03:54:02;;;;;;;13.65;2.75;;;;;;;10.73;100.00;100175.81;5070870;28;20035;-64
2021/05/15 03:56:28;;;;;;;22.00;4.53;;;;;;;10.73;100.00;100175.81;5070910;28;20495;-64
2021/05/15 03:58:54;;;;;;;24.90;4.05;;;;;;;10.72;100.00;100168.69;5070862;28;20052;-62
2021/05/15 04:01:21;;;;;;;20.85;4.22;;;;;;;10.72;100.00;100179.63;5070628;28;20044;-64
2021/05/15 04:03:47;;;;;;;26.90;3.58;;;;;;;10.70;100.00;100176.34;5070524;28;20049;-63
2021/05/15 04:06:13;;;;;;;17.35;3.40;;;;;;;10.70;100.00;100179.06;5070695;28;20376;-62
2021/05/15 04:08:39;;;;;;;21.67;3.70;;;;;;;10.69;100.00;100185.63;5070866;28;20097;-61
2021/05/15 04:11:05;;;;;;;34.85;4.47;;;;;;;10.68;100.00;100181.22;5070965;28;20490;-64
2021/05/15 04:16:15;;;;;;;18.05;3.55;;;;;;;10.66;100.00;100191.59;5070610;28;20083;-62
2021/05/15 04:18:41;;;;;;;19.63;2.80;;;;;;;10.63;100.00;100194.84;5070677;28;20130;-61
2021/05/15 04:21:07;;;;;;;19.20;2.85;;;;;;;10.62;100.00;100195.94;5070581;28;20459;-62
2021/05/15 04:23:33;;;;;;;21.63;3.33;;;;;;;10.61;100.00;100194.28;5070556;28;20076;-61
2021/05/15 04:26:00;;;;;;;18.92;3.53;;;;;;;10.57;100.00;100192.03;5070639;28;20046;-62
2021/05/15 04:28:27;;;;;;;12.55;2.42;;;;;;;10.56;100.00;100198.59;5070539;28;20094;-61
2021/05/15 04:30:54;;;;;;;15.65;2.38;;;;;;;10.53;100.00;100188.19;5070623;28;20391;-62
2021/05/15 04:33:23;;;;;;;26.05;3.75;;;;;;;10.52;100.00;100192.00;5070421;28;20051;-61
2021/05/15 04:35:52;;;;;;;24.58;3.33;;;;;;;10.50;100.00;100198.81;5070342;28;20047;-63
2021/05/15 04:38:18;;;;;;;22.20;3.85;;;;;;;10.47;100.00;100197.41;5070486;28;20039;-64
2021/05/15 04:40:45;;;;;;;19.13;3.42;;;;;;;10.43;100.00;100199.03;5074357;28;20463;-64
2021/05/15 04:43:13;;;;;;;23.30;3.90;;;;;;;10.41;100.00;100195.72;5074425;28;20068;-61
2021/05/15 04:45:39;;;;;;;24.77;4.35;;;;;;;10.39;100.00;100203.31;5074330;28;20098;-63
2021/05/15 04:48:05;;;;;;;23.02;3.63;;;;;;;10.39;100.00;100207.97;5074568;28;20056;-63
2021/05/15 04:50:31;;;;;;;24.10;3.63;;;;;;;10.39;100.00;100211.50;5073200;28;20075;-62
2021/05/15 04:52:56;;;;;;;27.42;3.85;;;;;;;10.36;100.00;100214.75;5074154;28;20072;-61
2021/05/15 04:55:22;;;;;;;20.90;3.78;;;;;;;10.37;100.00;100216.41;5074148;28;20040;-63
2021/05/15 04:57:48;;;;;;;31.17;4.72;;;;;;;10.36;100.00;100214.75;5074163;28;20094;-62
2021/05/15 05:00:14;;;;;;;31.60;4.28;;;;;;;10.35;100.00;100201.38;5074076;28;20044;-63
2021/05/15 05:02:40;;;;;;;30.23;4.75;;;;;;;10.34;100.00;100216.94;5073968;28;20043;-62
2021/05/15 05:05:09;;;;;;;26.95;4.50;;;;;;;10.34;100.00;100216.94;5073766;28;20060;-62
2021/05/15 05:07:34;;;;;;;30.73;4.53;;;;;;;10.34;100.00;100227.84;5074335;28;20071;-65
2021/05/15 05:10:00;;;;;;;33.70;4.88;;;;;;;10.33;100.00;100225.38;5073981;28;20060;-63
2021/05/15 05:12:26;;;;;;;45.63;5.65;;;;;;;10.34;100.00;100219.66;5074037;28;20525;-62
2021/05/15 05:14:52;;;;;;;40.35;6.00;;;;;;;10.33;100.00;100226.19;5073963;28;20040;-63
2021/05/15 05:17:17;;;;;;;58.53;7.13;;;;;;;10.31;100.00;100228.38;5074117;28;20407;-61
2021/05/15 05:19:43;;;;;;;47.97;7.10;;;;;;;10.29;100.00;100225.06;5073922;28;20047;-61
2021/05/15 05:22:09;;;;;;;56.42;6.55;;;;;;;10.27;100.00;100217.13;5073974;28;20040;-63
2021/05/15 05:24:34;;;;;;;51.95;7.38;;;;;;;10.29;100.00;100224.25;5073843;28;20040;-62
2021/05/15 05:27:02;;;;;;;67.45;8.57;;;;;;;10.29;100.00;100225.06;5073712;28;20551;-64
2021/05/15 05:29:28;;;;;;;58.78;8.38;;;;;;;10.30;100.00;100229.44;5073607;28;20036;-63
2021/05/15 05:31:55;;;;;;;59.85;8.80;;;;;;;10.30;100.00;100223.97;5073554;28;20036;-62
2021/05/15 05:34:21;;;;;;;59.38;8.98;;;;;;;10.32;100.00;100224.56;5073358;28;20044;-64
2021/05/15 05:36:48;;;;;;;55.13;7.80;;;;;;;10.33;100.00;100226.19;5073506;28;20062;-62
2021/05/15 05:39:18;;;;;;;46.80;7.45;;;;;;;10.35;100.00;100228.66;5073416;28;20435;-64
2021/05/15 05:41:45;;;;;;;52.20;7.85;;;;;;;10.38;100.00;100234.44;5073374;28;20036;-64
2021/05/15 05:44:11;;;;;;;56.63;8.23;;;;;;;10.41;100.00;100223.03;5073581;28;20051;-64
2021/05/15 05:46:38;;;;;;;61.13;8.32;;;;;;;10.47;100.00;100229.38;5071798;28;20044;-64
2021/05/15 05:49:04;;;;;;;65.90;9.95;;;;;;;10.58;100.00;100229.19;5073140;28;20036;-64
2021/05/15 05:51:30;;;;;;;69.55;9.45;;;;;;;10.69;100.00;100232.03;5072255;28;20075;-64
2021/05/15 05:53:56;;;;;;;65.63;9.80;;;;;;;10.77;100.00;100231.59;5073171;28;20060;-61
2021/05/15 05:56:21;;;;;;;63.22;9.80;;;;;;;10.83;100.00;100231.38;5072945;28;20479;-61
2021/05/15 05:58:47;;;;;;;69.78;7.95;;;;;;;10.90;100.00;100227.59;5073150;28;20040;-61
2021/05/15 06:01:15;;;;;;;50.75;8.48;;;;;;;10.95;100.00;100239.41;5072729;28;20090;-61
2021/05/15 06:03:41;;;;;;;65.53;9.05;;;;;;;11.00;100.00;100241.34;5072636;28;20051;-63
2021/05/15 06:06:08;;;;;;;72.85;9.95;;;;;;;11.02;100.00;100240.00;5072920;28;20029;-63
2021/05/15 06:08:34;;;;;;;58.15;9.65;;;;;;;11.05;100.00;100241.41;5072804;28;20462;-64
2021/05/15 06:11:00;;;;;;;68.68;9.52;;;;;;;11.04;100.00;100232.38;5072860;28;20029;-61
2021/05/15 06:13:26;;;;;;;69.72;10.98;;;;;;;11.06;100.00;100235.66;5072594;28;20041;-62
2021/05/15 06:15:52;;;;;;;49.80;9.32;;;;;;;11.08;100.00;100230.75;5072626;28;20040;-62
2021/05/15 06:18:18;;;;;;;65.28;9.55;;;;;;;11.10;100.00;100234.06;5072637;28;20111;-62
2021/05/15 06:20:45;;;;;;;59.33;9.00;;;;;;;11.12;100.00;100234.66;5072307;28;20136;-62
2021/05/15 06:23:11;;;;;;;68.90;10.35;;;;;;;11.24;100.00;100236.34;5071109;28;20372;-63
2021/05/15 06:25:36;;;;;;;70.32;10.88;;;;;;;11.29;100.00;100239.16;5072373;28;20038;-64
2021/05/15 06:28:02;;;;;;;69.97;10.60;;;;;;;11.33;100.00;100234.81;5072459;28;20040;-62
2021/05/15 06:30:28;;;;;;;66.53;9.40;;;;;;;11.41;100.00;100237.84;5072181;28;20445;-63
2021/05/15 06:32:53;;;;;;;65.30;10.25;;;;;;;11.52;100.00;100233.28;5072288;28;20087;-63
2021/05/15 06:35:19;;;;;;;75.85;10.48;;;;;;;11.56;100.00;100220.72;5072448;28;20071;-65
2021/05/15 06:37:45;;;;;;;56.65;8.95;;;;;;;11.60;100.00;100223.75;5072191;28;20052;-61
2021/05/15 06:40:12;;;;;;;56.40;7.72;;;;;;;11.65;100.00;100221.91;5071891;28;20036;-63
2021/05/15 06:42:37;;;;;;;56.53;8.35;;;;;;;11.68;100.00;100215.91;5071950;28;20055;-63
2021/05/15 06:45:05;;;;;;;63.55;10.50;;;;;;;11.77;100.00;100222.50;5071884;28;20040;-61
2021/05/15 06:47:30;;;;;;;56.80;8.73;;;;;;;11.83;100.00;100222.56;5072015;28;20032;-61
2021/05/15 06:49:56;;;;;;;54.78;9.02;;;;;;;11.85;100.00;100214.91;5072009;28;20051;-64
2021/05/15 06:52:22;;;;;;;52.80;7.93;;;;;;;11.89;100.00;100211.38;5071745;28;20439;-62
2021/05/15 06:54:48;;;;;;;51.30;7.75;;;;;;;11.92;100.00;100199.06;5071612;28;20047;-64
2021/05/15 06:57:13;;;;;;;57.10;7.50;;;;;;;11.98;100.00;100203.50;5070398;28;20090;-62
2021/05/15 06:59:39;;;;;;;59.88;9.70;;;;;;;12.09;100.00;100205.16;5071526;28;20040;-63
2021/05/15 07:02:04;;;;;;;65.85;9.57;;;;;;;12.08;100.00;100200.78;5071879;28;20402;-63
2021/05/15 07:04:30;;;;;;;50.10;9.07;;;;;;;12.14;100.00;100196.97;5071355;28;20052;-62
2021/05/15 07:06:56;;;;;;;52.88;8.15;;;;;;;12.19;100.00;100204.41;5071547;28;20039;-62
2021/05/15 07:09:21;;;;;;;50.80;7.32;;;;;;;12.36;100.00;100208.56;5071596;28;20457;-63
2021/05/15 07:11:51;;;;;;;63.83;8.80;;;;;;;12.38;100.00;100209.09;5071421;28;20032;-63
2021/05/15 07:14:17;;;;;;;58.72;7.97;;;;;;;12.40;100.00;100205.28;5071289;28;20055;-63
2021/05/15 07:16:42;;;;;;;62.65;10.57;;;;;;;12.52;100.00;100208.59;5071409;28;20402;-62
2021/05/15 07:19:08;;;;;;;58.50;7.97;;;;;;;12.53;100.00;100199.28;5071232;28;20040;-63
2021/05/15 07:21:34;;;;;;;58.50;7.85;;;;;;;12.53;100.00;100207.50;5069807;28;20036;-63
2021/05/15 07:24:00;;;;;;;57.55;7.45;;;;;;;12.48;100.00;100199.25;5069742;28;20568;-62
2021/05/15 07:26:25;;;;;;;53.78;8.20;;;;;;;12.50;100.00;100202.56;5071257;28;20093;-64
2021/05/15 07:28:51;;;;;;;47.45;7.20;;;;;;;12.51;100.00;100206.97;5071089;28;20390;-63
2021/05/15 07:31:17;;;;;;;58.80;7.70;;;;;;;12.53;100.00;100215.72;5071027;28;20039;-63
2021/05/15 07:33:42;;;;;;;49.05;7.63;;;;;;;12.60;100.00;100199.84;5071025;28;20408;-62
2021/05/15 07:36:08;;;;;;;47.80;7.35;;;;;;;12.58;100.00;100202.03;5071078;28;20032;-62
2021/05/15 07:38:36;;;;;;;50.80;7.82;;;;;;;12.58;100.00;100205.59;5071172;28;20570;-63
2021/05/15 07:41:03;;;;;;;45.20;8.02;;;;;;;12.52;100.00;100209.41;5070982;28;20047;-62
2021/05/15 07:43:28;;;;;;;40.92;6.38;;;;;;;12.54;100.00;100206.41;5070975;28;20093;-62
2021/05/15 07:45:55;;;;;;;53.00;7.78;;;;;;;12.63;100.00;100210.25;5070902;28;20445;-63
2021/05/15 07:48:41;;;;;;;44.45;7.80;;;;;;;12.70;100.00;100210.84;5070930;28;20047;-62
2021/05/15 07:51:11;;;;;;;43.92;8.15;;;;;;;12.80;100.00;100216.31;5070876;28;20037;-61
2021/05/15 07:53:37;;;;;;;39.53;6.60;;;;;;;12.92;100.00;100216.88;5070742;28;20407;-65
2021/05/15 07:56:03;;;;;;;34.67;6.65;;;;;;;13.15;100.00;100222.91;5070801;28;20036;-61
2021/05/15 07:58:29;;;;;;;35.05;6.10;;;;;;;13.30;100.00;100211.97;5070836;28;20040;-62
2021/05/15 08:00:55;;;;;;;38.13;5.85;;;;;;;13.28;100.00;100205.94;5070808;28;20115;-64
2021/05/15 08:03:21;;;;;;;44.72;6.38;;;;;;;13.25;100.00;100206.50;5070626;28;20198;-62
2021/05/15 08:05:47;;;;;;;35.30;4.90;;;;;;;13.18;100.00;100216.91;5070578;28;20041;-63
2021/05/15 08:08:13;;;;;;;30.77;5.03;;;;;;;13.08;100.00;100200.44;5070729;28;20040;-62
2021/05/15 08:10:39;;;;;;;24.05;3.90;;;;;;;12.88;100.00;100202.06;5070523;28;20028;-61
2021/05/15 08:13:05;;;;;;;27.20;4.32;;;;;;;12.90;100.00;100213.59;5070409;28;20067;-63
2021/05/15 08:15:31;;;;;;;20.33;4.38;;;;;;;12.88;100.00;100213.03;5070436;28;20120;-62
2021/05/15 08:17:57;;;;;;;22.67;4.57;;;;;;;12.81;100.00;100215.22;5070820;28;20119;-63
2021/05/15 08:20:23;;;;;;;26.23;4.45;;;;;;;12.78;100.00;100213.03;5069314;28;20037;-62
2021/05/15 08:22:50;;;;;;;31.42;6.38;;;;;;;12.75;100.00;100213.56;5070938;28;20040;-62
2021/05/15 08:25:17;;;;;;;34.53;4.68;;;;;;;12.87;100.00;100214.13;5070369;28;20513;-63
2021/05/15 08:27:49;;;;;;;33.35;4.55;;;;;;;12.95;100.00;100219.06;5070566;28;20044;-62
2021/05/15 08:30:18;;;;;;;32.58;5.40;;;;;;;13.02;100.00;100216.06;5070565;28;20111;-62
2021/05/15 08:32:51;;;;;;;34.90;5.97;;;;;;;13.16;100.00;100221.81;5070496;28;20044;-63
2021/05/15 08:35:17;;;;;;;31.55;5.28;;;;;;;13.28;100.00;100216.91;5070557;28;20071;-62
2021/05/15 08:37:43;;;;;;;35.05;5.03;;;;;;;13.39;100.00;100221.28;5070415;28;20509;-63
2021/05/15 08:40:10;;;;;;;30.20;5.35;;;;;;;13.52;100.00;100204.25;5070314;28;20070;-64
2021/05/15 08:42:38;;;;;;;31.60;4.75;;;;;;;13.68;100.00;100218.75;5070254;28;20390;-62
2021/05/15 08:45:06;;;;;;;36.30;6.53;;;;;;;13.85;100.00;100221.19;5070235;28;20036;-62
2021/05/15 08:47:34;;;;;;;29.02;6.00;;;;;;;13.81;100.00;100225.59;5070472;28;20051;-63
2021/05/15 08:50:01;;;;;;;26.65;4.68;;;;;;;14.07;100.00;100224.44;5070367;28;20036;-63
2021/05/15 08:52:27;;;;;;;28.25;4.72;;;;;;;13.93;100.00;100223.38;5070352;28;20431;-61
2021/05/15 08:54:53;;;;;;;32.50;6.53;;;;;;;13.89;100.00;100216.81;5070118;28;20072;-61
2021/05/15 08:57:19;;;;;;;38.97;5.50;;;;;;;13.78;100.00;100220.66;5070227;28;20112;-63
2021/05/15 08:59:50;;;;;;;32.75;5.35;;;;;;;13.91;100.00;100224.75;5070156;28;20033;-61
2021/05/15 09:02:17;;;;;;;32.80;5.45;;;;;;;13.98;100.00;100237.06;5070179;28;20094;-62
2021/05/15 09:04:43;;;;;;;30.17;4.97;;;;;;;13.95;100.00;100220.34;5069928;28;20087;-65
2021/05/15 09:07:09;;;;;;;31.13;6.25;;;;;;;14.01;100.00;100220.03;5070249;28;20033;-64
2021/05/15 09:09:36;;;;;;;34.00;6.07;;;;;;;14.06;100.00;100228.28;5070147;28;20064;-64
2021/05/15 09:12:04;;;;;;;32.30;5.03;;;;;;;13.99;100.00;100227.72;5070175;28;20066;-61
2021/05/15 09:14:30;;;;;;;30.10;5.82;;;;;;;13.95;100.00;100228.59;5069928;28;20062;-63
2021/05/15 09:16:56;;;;;;;31.25;5.07;;;;;;;13.86;100.00;100214.59;5070025;28;20459;-64
2021/05/15 09:19:27;;;;;;;32.78;4.95;;;;;;;13.83;100.00;100217.91;5069974;28;20484;-62
2021/05/15 09:22:02;;;;;;;26.77;4.45;;;;;;;14.06;100.00;100220.03;5069946;28;20040;-61
2021/05/15 09:24:40;;;;;;;33.10;5.75;;;;;;;14.21;100.00;100210.88;5070002;28;20034;-62
2021/05/15 09:27:08;;;;;;;30.65;4.88;;;;;;;14.38;100.00;100213.28;5072650;28;20028;-63
2021/05/15 09:29:41;;;;;;;26.77;6.03;;;;;;;14.51;100.00;100214.63;5073546;28;20487;-62
2021/05/15 09:32:07;;;;;;;27.88;5.03;;;;;;;14.63;100.00;100221.44;5073422;28;20478;-62
2021/05/15 09:34:46;;;;;;;27.70;3.88;;;;;;;14.78;100.00;100223.25;5073249;28;20093;-61
2021/05/15 09:37:12;;;;;;;34.00;5.00;;;;;;;14.94;100.00;100221.22;5073341;28;20040;-62
2021/05/15 09:39:37;;;;;;;30.88;5.30;;;;;;;15.11;100.00;100210.66;5073294;28;20085;-62
2021/05/15 09:42:04;;;;;;;32.38;5.10;;;;;;;14.99;100.00;100212.94;5072032;28;20040;-63
2021/05/15 09:44:35;;;;;;;32.38;4.85;;;;;;;14.86;100.00;100219.06;5073086;28;20409;-62
2021/05/15 09:47:04;;;;;;;23.30;4.50;;;;;;;14.72;100.00;100219.69;5073232;28;20048;-63
2021/05/15 09:49:32;;;;;;;31.23;4.45;;;;;;;14.71;100.00;100218.06;5073179;28;20376;-62
2021/05/15 09:52:03;;;;;;;26.23;4.65;;;;;;;14.60;100.00;100222.00;5073105;28;20423;-63
2021/05/15 09:54:45;;;;;;;31.73;4.93;;;;;;;14.50;100.00;100224.78;5072905;28;20486;-63
2021/05/15 09:57:18;;;;;;;29.48;5.07;;;;;;;14.39;100.00;100225.91;5073137;28;20033;-61
2021/05/15 09:59:51;;;;;;;25.60;5.30;;;;;;;14.39;100.00;100221.22;5073180;28;20131;-62
2021/05/15 10:02:20;;;;;;;30.45;4.22;;;;;;;14.36;100.00;100226.47;5073050;28;20032;-61
2021/05/15 10:04:48;;;;;;;24.70;5.75;;;;;;;14.28;100.00;100213.34;5072593;28;20068;-62
2021/05/15 10:07:17;;;;;;;35.65;5.68;;;;;;;14.14;100.00;100230.44;5072772;28;20063;-63
2021/05/15 10:09:43;;;;;;;24.10;4.70;;;;;;;13.97;100.00;100235.44;5071240;28;20044;-61
2021/05/15 10:12:08;;;;;;;21.52;4.60;;;;;;;13.76;100.00;100240.16;5072668;28;20036;-63
2021/05/15 10:14:34;;;;;;;23.63;4.32;;;;;;;13.61;100.00;100231.13;5072518;28;20033;-62
2021/05/15 10:17:00;;;;;;;36.10;4.93;;;;;;;13.43;100.00;100247.06;5072641;28;20035;-63
2021/05/15 10:19:30;;;;;;;29.98;4.32;;;;;;;13.32;100.00;100250.91;5071399;28;20037;-61
2021/05/15 10:21:57;;;;;;;23.73;3.13;;;;;;;13.12;100.00;100234.44;5072376;28;20040;-62
2021/05/15 10:24:28;;;;;;;17.05;2.78;;;;;;;12.97;100.00;100238.78;5072223;28;20040;-63
2021/05/15 10:26:59;;;;;;;14.50;2.65;;;;;;;12.85;100.00;100240.19;5072387;28;20090;-61
2021/05/15 10:29:39;;;;;;;10.60;2.60;;;;;;;12.80;100.00;100232.75;5071086;28;20115;-64
2021/05/15 10:32:08;;;;;;;13.77;2.00;;;;;;;13.17;100.00;100232.50;5072493;28;20078;-63
2021/05/15 10:34:34;;;;;;;9.82;1.52;;;;;;;13.53;100.00;100230.59;5072175;28;20493;-63
2021/05/15 10:37:02;;;;;;;12.45;2.05;;;;;;;13.87;100.00;100225.28;5071957;28;20045;-61
2021/05/15 10:39:32;;;;;;;10.55;1.70;;;;;;;13.98;100.00;100237.06;5072452;28;20483;-63
2021/05/15 10:42:03;;;;;;;8.45;1.00;;;;;;;14.08;100.00;100234.31;5070837;28;20123;-62
2021/05/15 10:44:42;;;;;;;5.65;1.58;;;;;;;14.18;100.00;100237.00;5071962;28;20402;-64
2021/05/15 10:47:12;;;;;;;5.57;1.17;;;;;;;14.28;100.00;100236.16;5071874;28;20090;-61
2021/05/15 10:49:38;;;;;;;8.52;2.50;;;;;;;14.35;100.00;100235.81;5071812;28;20055;-63
2021/05/15 10:52:23;;;;;;;12.18;2.10;;;;;;;14.38;100.00;100235.25;5071569;28;20033;-62
2021/05/15 10:55:00;;;;;;;16.63;3.28;;;;;;;14.30;100.00;100235.88;5071771;28;20033;-63
2021/05/15 10:57:30;;;;;;;15.43;3.15;;;;;;;14.57;100.00;100244.53;5071821;28;20041;-63
2021/05/15 11:00:09;;;;;;;18.00;2.80;;;;;;;14.99;100.00;100240.44;5071602;28;20056;-63
2021/05/15 11:02:40;;;;;;;21.55;3.65;;;;;;;15.03;100.00;100242.31;5071621;28;20036;-61
2021/05/15 11:05:14;;;;;;;28.48;4.68;;;;;;;14.89;100.00;100235.81;5071453;28;20482;-63
2021/05/15 11:07:40;;;;;;;33.55;6.05;;;;;;;14.76;100.00;100239.22;5071545;28;20090;-63
2021/05/15 11:10:12;;;;;;;32.50;6.05;;;;;;;14.63;100.00;100243.41;5071684;28;20047;-62
2021/05/15 11:12:51;;;;;;;31.80;6.00;;;;;;;14.57;100.00;100238.22;5071665;28;20429;-62
2021/05/15 11:15:19;;;;;;;26.17;4.07;;;;;;;14.41;100.00;100241.03;5071468;28;20036;-63